Time;durP1;ratioP1;P1;durP2;ratioP2;P2;SDS_P1;SDS_P2;PMS_P1;PMS_P2;Temp;Humidity;BMP_temperature;BMP_pressure;BME280_temperature;BME280_humidity;BME280_pressure;Samples;Min_cycle;Max_cycle;Signal;HPM_P1;HPM_P2
2021/12/23 00:00:32;;;;;;;14.65;9.75;;;-0.60;99.90;;;;;;5084344;28;20044;-68
2021/12/23 00:02:58;;;;;;;15.23;10.25;;;-0.60;99.90;;;;;;5067874;28;20056;-68
2021/12/23 00:05:23;;;;;;;17.75;10.95;;;-0.60;99.90;;;;;;5061153;28;20036;-68
2021/12/23 00:07:49;;;;;;;16.83;10.60;;;-0.90;99.90;;;;;;5086020;28;20381;-68
2021/12/23 00:10:14;;;;;;;15.18;10.48;;;-0.40;99.90;;;;;;5071419;28;20045;-68
2021/12/23 00:12:43;;;;;;;15.70;10.35;;;-0.60;99.90;;;;;;5087915;28;20048;-68
2021/12/23 00:15:22;;;;;;;20.75;11.15;;;-0.60;99.90;;;;;;5083518;28;20457;-68
2021/12/23 00:18:16;;;;;;;15.85;10.75;;;-0.60;99.90;;;;;;5067887;28;20039;-68
2021/12/23 00:26:06;;;;;;;16.35;10.82;;;-0.50;99.90;;;;;;5078889;28;20044;-68
2021/12/23 00:28:32;;;;;;;16.33;10.35;;;-0.50;99.90;;;;;;5091463;28;20051;-68
2021/12/23 00:30:59;;;;;;;17.42;10.40;;;-0.40;99.90;;;;;;5087921;28;20476;-68
2021/12/23 00:33:25;;;;;;;17.85;11.77;;;-0.40;99.90;;;;;;5090817;28;20044;-68
2021/12/23 00:35:53;;;;;;;16.85;10.95;;;-0.50;99.90;;;;;;5093517;28;20040;-68
2021/12/23 00:38:27;;;;;;;16.30;10.90;;;-0.50;99.90;;;;;;5082424;28;20124;-68
2021/12/23 00:40:54;;;;;;;16.00;10.38;;;-0.50;99.90;;;;;;5072173;28;20036;-69
2021/12/23 00:43:20;;;;;;;18.83;11.10;;;-0.50;99.90;;;;;;5050424;28;20048;-69
2021/12/23 00:45:46;;;;;;;19.13;11.38;;;-0.50;99.90;;;;;;5075595;28;20043;-69
2021/12/23 00:48:12;;;;;;;17.52;12.07;;;-0.50;99.90;;;;;;5084879;28;20044;-69
2021/12/23 00:50:37;;;;;;;18.02;11.63;;;-0.40;99.90;;;;;;5089391;28;20085;-68
2021/12/23 00:53:07;;;;;;;18.92;11.00;;;-0.40;99.90;;;;;;5090840;28;20043;-69
2021/12/23 00:55:33;;;;;;;18.80;11.82;;;-0.40;99.90;;;;;;5088424;28;20044;-69
2021/12/23 00:57:59;;;;;;;18.35;11.30;;;-0.40;99.90;;;;;;5089854;28;20476;-68
2021/12/23 01:00:26;;;;;;;17.00;10.90;;;-0.30;99.90;;;;;;5089106;28;20097;-69
2021/12/23 01:02:51;;;;;;;16.90;11.38;;;-0.30;99.90;;;;;;5090141;28;20039;-68
2021/12/23 01:05:20;;;;;;;16.13;10.75;;;-0.30;99.90;;;;;;5062272;28;20071;-69
2021/12/23 01:07:47;;;;;;;18.20;11.02;;;-0.30;99.90;;;;;;5080120;28;20071;-68
2021/12/23 01:10:13;;;;;;;17.33;11.07;;;-0.20;99.90;;;;;;5086745;28;20257;-69
2021/12/23 01:12:52;;;;;;;18.85;12.30;;;-0.30;99.90;;;;;;5071434;28;20037;-69
2021/12/23 01:17:56;;;;;;;17.73;11.40;;;-0.20;99.90;;;;;;5058040;28;20051;-69
2021/12/23 01:20:31;;;;;;;17.40;11.48;;;-0.10;99.90;;;;;;5089623;28;20408;-68
2021/12/23 01:23:00;;;;;;;17.20;10.97;;;-0.20;99.90;;;;;;5091168;28;20139;-69
2021/12/23 01:25:27;;;;;;;19.13;11.30;;;-0.20;99.90;;;;;;5068693;28;20115;-68
2021/12/23 01:27:53;;;;;;;19.02;11.75;;;-0.10;99.90;;;;;;5066991;28;20045;-68
2021/12/23 01:30:19;;;;;;;19.35;11.70;;;-0.10;99.90;;;;;;5073884;28;20493;-69
2021/12/23 01:32:46;;;;;;;15.80;11.27;;;-0.10;99.90;;;;;;5088730;28;20063;-68
2021/12/23 01:35:12;;;;;;;19.85;11.93;;;-0.10;99.90;;;;;;5089840;28;20080;-69
2021/12/23 01:37:38;;;;;;;17.17;11.30;;;-0.10;99.90;;;;;;5091767;28;20052;-68
2021/12/23 01:40:05;;;;;;;18.10;12.30;;;0.00;99.90;;;;;;5078342;28;20044;-68
2021/12/23 01:42:31;;;;;;;18.60;10.85;;;0.00;99.90;;;;;;5079703;28;20040;-68
2021/12/23 01:44:56;;;;;;;17.40;11.25;;;0.00;99.90;;;;;;5091279;28;20056;-69
2021/12/23 01:47:23;;;;;;;20.80;11.20;;;0.00;99.90;;;;;;5089704;28;20437;-68
2021/12/23 01:49:49;;;;;;;18.00;11.35;;;0.00;99.90;;;;;;5087317;28;20055;-68
2021/12/23 01:52:15;;;;;;;18.38;11.73;;;0.00;99.90;;;;;;5089210;28;20055;-69
2021/12/23 01:54:41;;;;;;;18.27;11.23;;;0.00;99.90;;;;;;5084178;28;20036;-69
2021/12/23 01:57:07;;;;;;;17.90;11.85;;;0.00;99.90;;;;;;5072367;28;20131;-67
2021/12/23 01:59:33;;;;;;;20.10;12.20;;;0.10;99.90;;;;;;5060260;28;20052;-67
2021/12/23 02:01:59;;;;;;;21.75;12.43;;;0.10;99.90;;;;;;5071719;28;20033;-68
2021/12/23 02:04:25;;;;;;;21.13;13.73;;;0.20;99.90;;;;;;5069380;28;20036;-69
2021/12/23 02:06:50;;;;;;;23.40;13.25;;;0.10;99.90;;;;;;5077504;28;20040;-67
2021/12/23 02:09:18;;;;;;;22.33;13.90;;;0.10;99.90;;;;;;5079403;28;20036;-68
2021/12/23 02:11:44;;;;;;;21.73;12.80;;;0.10;99.90;;;;;;5095685;28;20048;-67
2021/12/23 02:14:10;;;;;;;21.27;12.35;;;0.20;99.90;;;;;;5067452;28;20433;-69
2021/12/23 02:16:35;;;;;;;19.80;12.73;;;0.30;99.90;;;;;;5084651;28;20127;-69
2021/12/23 02:19:04;;;;;;;21.33;13.18;;;0.20;99.90;;;;;;5084082;28;20079;-69
2021/12/23 02:21:29;;;;;;;20.65;13.32;;;0.10;99.90;;;;;;5082858;28;20511;-70
2021/12/23 02:23:55;;;;;;;19.67;12.38;;;0.00;99.90;;;;;;5089270;28;20082;-69
2021/12/23 02:26:21;;;;;;;20.50;12.77;;;0.00;99.90;;;;;;5088292;28;20163;-69
2021/12/23 02:28:46;;;;;;;18.58;12.05;;;0.00;99.90;;;;;;5087729;28;20039;-69
2021/12/23 02:31:12;;;;;;;19.65;12.77;;;-0.10;99.90;;;;;;5070970;28;20074;-70
2021/12/23 02:33:38;;;;;;;20.90;12.95;;;0.00;99.90;;;;;;5088364;28;20070;-68
2021/12/23 02:36:04;;;;;;;19.95;12.90;;;0.00;99.90;;;;;;5088662;28;20387;-67
2021/12/23 02:38:29;;;;;;;18.30;11.93;;;0.00;99.90;;;;;;5104932;28;20461;-67
2021/12/23 02:40:55;;;;;;;21.05;13.52;;;0.10;99.90;;;;;;5074842;28;20036;-68
2021/12/23 02:43:24;;;;;;;20.90;11.13;;;0.10;99.90;;;;;;5088066;28;20088;-68
2021/12/23 02:45:52;;;;;;;21.42;13.02;;;0.20;99.90;;;;;;5066185;28;20127;-67
2021/12/23 02:48:39;;;;;;;19.73;12.63;;;0.20;99.90;;;;;;5053245;28;20049;-67
2021/12/23 02:51:11;;;;;;;22.35;13.30;;;0.20;99.90;;;;;;5090941;28;20044;-68
2021/12/23 02:53:38;;;;;;;17.80;11.70;;;0.20;99.90;;;;;;5087184;28;20391;-67
2021/12/23 02:56:06;;;;;;;18.50;11.57;;;0.10;99.90;;;;;;5088475;28;20048;-67
2021/12/23 02:58:32;;;;;;;21.30;13.15;;;0.10;99.90;;;;;;5088388;28;20048;-68
2021/12/23 03:01:01;;;;;;;19.17;12.38;;;0.20;99.90;;;;;;5089103;28;20447;-67
2021/12/23 03:03:27;;;;;;;18.83;11.73;;;0.10;99.90;;;;;;5087721;28;20051;-67
2021/12/23 03:05:54;;;;;;;21.90;12.55;;;0.10;99.90;;;;;;5087830;28;20056;-67
2021/12/23 03:08:36;;;;;;;22.48;13.25;;;0.10;99.90;;;;;;5087658;28;20408;-68
2021/12/23 03:11:03;;;;;;;20.38;12.60;;;0.20;99.90;;;;;;5086199;28;20040;-67
2021/12/23 03:13:29;;;;;;;21.27;12.98;;;0.10;99.90;;;;;;5087789;28;20089;-68
2021/12/23 03:15:55;;;;;;;20.15;12.45;;;0.10;99.90;;;;;;5089246;28;20052;-68
2021/12/23 03:18:21;;;;;;;21.25;12.55;;;0.10;99.90;;;;;;5086121;28;20040;-68
2021/12/23 03:20:47;;;;;;;20.55;12.02;;;0.10;99.90;;;;;;5088727;28;20036;-67
2021/12/23 03:23:12;;;;;;;22.63;13.45;;;0.20;99.90;;;;;;5086864;28;20044;-68
2021/12/23 03:25:38;;;;;;;21.95;12.90;;;0.10;99.90;;;;;;5087671;28;20040;-68
2021/12/23 03:28:04;;;;;;;20.17;12.82;;;0.10;99.90;;;;;;5089131;28;20075;-68
2021/12/23 03:30:30;;;;;;;20.70;13.27;;;0.10;99.90;;;;;;5064710;28;20118;-69
2021/12/23 03:32:56;;;;;;;21.08;13.10;;;0.10;99.90;;;;;;5088352;28;20051;-70
2021/12/23 03:35:21;;;;;;;21.10;12.93;;;0.10;99.90;;;;;;5086868;28;20388;-69
2021/12/23 03:37:47;;;;;;;20.92;12.85;;;0.20;99.90;;;;;;5087635;28;20044;-69
2021/12/23 03:40:13;;;;;;;20.65;13.25;;;0.10;99.90;;;;;;5072466;28;20048;-69
2021/12/23 03:42:39;;;;;;;21.83;12.18;;;0.20;99.90;;;;;;5089105;28;20392;-69
2021/12/23 03:45:07;;;;;;;24.02;13.80;;;0.30;99.90;;;;;;5087279;28;20091;-69
2021/12/23 03:47:37;;;;;;;21.55;12.90;;;0.30;99.90;;;;;;5087852;28;20047;-69
2021/12/23 03:50:04;;;;;;;24.20;14.15;;;0.30;99.90;;;;;;5086715;28;20071;-69
2021/12/23 03:52:30;;;;;;;22.85;13.70;;;0.40;99.90;;;;;;5087896;28;20051;-69
2021/12/23 03:54:56;;;;;;;22.40;13.88;;;0.40;99.90;;;;;;5075099;28;20049;-69
2021/12/23 03:57:22;;;;;;;20.77;13.25;;;0.40;99.90;;;;;;5049079;28;20036;-67
2021/12/23 03:59:47;;;;;;;21.35;13.10;;;0.40;99.90;;;;;;5077017;28;20047;-67
2021/12/23 04:02:13;;;;;;;21.10;13.27;;;0.40;99.90;;;;;;5081912;28;20040;-68
2021/12/23 04:04:39;;;;;;;20.38;12.35;;;0.40;99.90;;;;;;5067449;28;20127;-68
2021/12/23 04:07:05;;;;;;;23.10;13.43;;;0.40;99.90;;;;;;5065315;28;20052;-67
2021/12/23 04:09:31;;;;;;;23.27;13.02;;;0.30;99.90;;;;;;5079545;28;20452;-69
2021/12/23 04:11:56;;;;;;;19.52;12.80;;;0.40;99.90;;;;;;5087327;28;20040;-67
2021/12/23 04:14:22;;;;;;;20.75;12.57;;;0.40;99.90;;;;;;5078173;28;20052;-67
2021/12/23 04:16:47;;;;;;;21.25;13.20;;;0.40;99.90;;;;;;5068227;28;20098;-70
2021/12/23 04:19:13;;;;;;;22.50;13.40;;;0.40;99.90;;;;;;5075471;28;20070;-70
2021/12/23 04:21:40;;;;;;;20.25;13.00;;;0.40;99.90;;;;;;5085461;28;20048;-69
2021/12/23 04:24:07;;;;;;;22.40;12.07;;;0.40;99.90;;;;;;5068924;28;20040;-67
2021/12/23 04:26:33;;;;;;;22.30;12.27;;;0.40;99.90;;;;;;5065976;28;20072;-69
2021/12/23 04:28:58;;;;;;;19.35;11.30;;;0.40;99.90;;;;;;5079171;28;20062;-69
2021/12/23 04:31:25;;;;;;;20.83;12.18;;;0.50;99.90;;;;;;5084858;28;20044;-69
2021/12/23 04:33:54;;;;;;;22.33;12.45;;;0.50;99.90;;;;;;5087826;28;20362;-69
2021/12/23 04:36:20;;;;;;;21.67;13.43;;;0.50;99.90;;;;;;5074669;28;20053;-69
2021/12/23 04:38:47;;;;;;;21.10;12.77;;;0.50;99.90;;;;;;5072204;28;20058;-69
2021/12/23 04:41:14;;;;;;;21.65;13.45;;;0.50;99.90;;;;;;5079068;28;20070;-70
2021/12/23 04:43:41;;;;;;;21.60;12.90;;;0.50;99.90;;;;;;5066246;28;20048;-69
2021/12/23 04:46:06;;;;;;;20.35;13.35;;;0.50;99.90;;;;;;5066015;28;20056;-69
2021/12/23 04:48:32;;;;;;;20.05;12.73;;;0.40;99.90;;;;;;5081655;28;20060;-67
2021/12/23 04:50:59;;;;;;;21.67;13.10;;;0.50;99.90;;;;;;5071774;28;20051;-69
2021/12/23 04:53:26;;;;;;;20.52;12.93;;;0.40;99.90;;;;;;5077212;28;20036;-69
2021/12/23 04:55:52;;;;;;;21.73;13.75;;;0.80;99.90;;;;;;5078402;28;20040;-69
2021/12/23 04:58:18;;;;;;;25.35;14.35;;;0.40;99.90;;;;;;5064576;28;20084;-70
2021/12/23 05:00:49;;;;;;;19.75;11.30;;;0.40;99.90;;;;;;5074513;28;20068;-69
2021/12/23 05:03:19;;;;;;;21.10;12.07;;;0.80;99.90;;;;;;5068167;28;20090;-69
2021/12/23 05:05:46;;;;;;;21.23;12.57;;;0.50;99.90;;;;;;5067305;28;20055;-69
2021/12/23 05:08:13;;;;;;;20.67;12.57;;;0.50;99.90;;;;;;5066863;28;20051;-70
2021/12/23 05:10:39;;;;;;;21.25;13.13;;;0.50;99.90;;;;;;5083647;28;20044;-69
2021/12/23 05:13:05;;;;;;;21.35;13.10;;;0.50;99.90;;;;;;5069308;28;20517;-70
2021/12/23 05:15:31;;;;;;;20.95;13.02;;;0.50;99.90;;;;;;5086752;28;20075;-70
2021/12/23 05:17:57;;;;;;;22.58;13.18;;;0.50;99.90;;;;;;5088527;28;20033;-70
2021/12/23 05:20:23;;;;;;;21.67;13.35;;;0.50;99.90;;;;;;5070447;28;20048;-69
2021/12/23 05:22:49;;;;;;;20.92;12.60;;;0.50;99.90;;;;;;5069785;28;20040;-69
2021/12/23 05:25:16;;;;;;;18.10;11.88;;;0.50;99.90;;;;;;5085319;28;20322;-69
2021/12/23 05:27:43;;;;;;;17.77;10.38;;;0.50;99.90;;;;;;5090005;28;20484;-69
2021/12/23 05:30:13;;;;;;;20.63;12.73;;;0.60;99.90;;;;;;5068514;28;20381;-69
2021/12/23 05:32:41;;;;;;;21.52;13.07;;;0.70;99.90;;;;;;5073106;28;20041;-69
2021/12/23 05:35:08;;;;;;;19.23;11.60;;;0.70;99.90;;;;;;5068947;28;20041;-67
2021/12/23 05:37:34;;;;;;;21.55;13.10;;;-0.80;99.90;;;;;;5069636;28;20044;-67
2021/12/23 05:39:59;;;;;;;19.08;11.73;;;0.90;99.90;;;;;;5085495;28;20040;-69
2021/12/23 05:42:25;;;;;;;21.77;13.20;;;0.70;99.90;;;;;;5070127;28;20052;-67
2021/12/23 05:44:50;;;;;;;21.75;13.00;;;0.70;99.90;;;;;;5079847;28;20044;-68
2021/12/23 05:47:16;;;;;;;20.50;13.10;;;0.70;99.90;;;;;;5073162;28;20040;-70
2021/12/23 05:49:42;;;;;;;20.48;12.52;;;0.80;99.90;;;;;;5070934;28;20053;-67
2021/12/23 05:52:07;;;;;;;19.70;12.48;;;0.80;99.90;;;;;;5089191;28;20040;-70
2021/12/23 05:54:33;;;;;;;22.83;12.48;;;0.80;99.90;;;;;;5087951;28;20072;-67
2021/12/23 05:57:02;;;;;;;20.98;13.40;;;0.80;99.90;;;;;;5076576;28;20618;-67
2021/12/23 05:59:34;;;;;;;21.88;13.02;;;0.80;99.90;;;;;;5068439;28;20044;-68
2021/12/23 06:02:05;;;;;;;21.95;13.15;;;0.70;99.90;;;;;;5080395;28;20500;-68
2021/12/23 06:04:31;;;;;;;21.95;13.15;;;0.80;99.90;;;;;;5071493;28;20051;-68
2021/12/23 06:06:57;;;;;;;20.60;12.27;;;0.80;99.90;;;;;;5088830;28;20044;-68
2021/12/23 06:09:23;;;;;;;21.35;13.25;;;0.70;99.90;;;;;;5080377;28;20098;-68
2021/12/23 06:11:49;;;;;;;23.27;13.65;;;0.80;99.90;;;;;;5068232;28;20125;-67
2021/12/23 06:14:16;;;;;;;22.05;13.43;;;0.70;99.90;;;;;;5100494;28;20047;-68
2021/12/23 06:16:42;;;;;;;23.00;13.57;;;0.70;99.90;;;;;;5052225;28;20063;-69
2021/12/23 06:19:08;;;;;;;24.90;13.90;;;2.20;99.90;;;;;;5068344;28;20055;-68
2021/12/23 06:21:33;;;;;;;21.80;13.38;;;0.80;99.90;;;;;;5067832;28;20344;-69
2021/12/23 06:23:59;;;;;;;21.67;13.90;;;0.80;99.90;;;;;;5069891;28;20134;-69
2021/12/23 06:26:25;;;;;;;21.83;12.93;;;0.90;99.90;;;;;;5068482;28;20044;-70
2021/12/23 06:28:51;;;;;;;22.00;13.43;;;0.90;99.90;;;;;;5081126;28;20055;-68
2021/12/23 06:31:17;;;;;;;19.52;13.00;;;0.90;99.90;;;;;;5074947;28;20127;-68
2021/12/23 06:33:42;;;;;;;23.70;14.23;;;1.00;99.90;;;;;;5068378;28;20048;-68
2021/12/23 06:36:08;;;;;;;21.23;13.95;;;1.00;99.90;;;;;;5069221;28;20048;-70
2021/12/23 06:38:35;;;;;;;21.70;14.02;;;1.00;99.90;;;;;;5068223;28;20044;-68
2021/12/23 06:41:01;;;;;;;21.77;14.07;;;1.00;99.90;;;;;;5059995;28;20389;-68
2021/12/23 06:43:27;;;;;;;22.55;14.15;;;0.90;99.90;;;;;;5067077;28;20118;-68
2021/12/23 06:45:53;;;;;;;23.05;14.23;;;1.00;99.90;;;;;;5072747;28;20449;-69
2021/12/23 06:48:18;;;;;;;19.30;11.73;;;1.00;99.90;;;;;;5085729;28;20056;-68
2021/12/23 06:50:45;;;;;;;21.58;11.98;;;1.10;99.90;;;;;;5070688;28;20048;-68
2021/12/23 06:53:13;;;;;;;22.92;13.95;;;1.00;99.90;;;;;;5088692;28;20050;-68
2021/12/23 06:55:40;;;;;;;23.08;13.82;;;1.10;99.90;;;;;;5087566;28;20484;-68
2021/12/23 06:58:06;;;;;;;23.85;14.32;;;1.10;99.90;;;;;;5088229;28;20036;-68
2021/12/23 07:00:31;;;;;;;22.13;14.07;;;1.10;99.90;;;;;;5083605;28;20139;-68
2021/12/23 07:02:57;;;;;;;22.52;13.27;;;1.10;99.90;;;;;;5067373;28;20044;-68
2021/12/23 07:05:23;;;;;;;23.20;14.07;;;1.00;99.90;;;;;;5071097;28;20048;-68
2021/12/23 07:07:57;;;;;;;25.25;14.55;;;1.10;99.90;;;;;;5075095;28;20040;-68
2021/12/23 07:10:28;;;;;;;23.05;14.25;;;1.10;99.90;;;;;;5081440;28;20400;-68
2021/12/23 07:12:55;;;;;;;22.40;13.18;;;1.10;99.90;;;;;;5080207;28;20493;-68
2021/12/23 07:15:23;;;;;;;27.70;16.05;;;1.10;99.90;;;;;;5079508;28;20127;-69
2021/12/23 07:17:49;;;;;;;24.98;15.90;;;1.10;99.90;;;;;;5070002;28;20076;-68
2021/12/23 07:20:15;;;;;;;24.70;15.68;;;1.00;99.90;;;;;;5065483;28;20084;-68
2021/12/23 07:22:41;;;;;;;25.35;15.60;;;1.10;99.90;;;;;;5067412;28;20130;-69
2021/12/23 07:25:07;;;;;;;27.73;16.83;;;1.00;99.90;;;;;;5063361;28;20052;-69
2021/12/23 07:27:33;;;;;;;27.52;16.30;;;1.00;99.90;;;;;;5069261;28;20059;-69
2021/12/23 07:29:59;;;;;;;24.55;14.48;;;1.00;99.90;;;;;;5059543;28;20119;-69
2021/12/23 07:32:25;;;;;;;24.80;14.85;;;1.10;99.90;;;;;;5049750;28;20056;-68
2021/12/23 07:34:51;;;;;;;27.92;16.73;;;1.00;99.90;;;;;;5031610;28;20088;-66
2021/12/23 07:37:16;;;;;;;26.58;15.65;;;1.00;99.90;;;;;;5081500;28;20429;-66
2021/12/23 07:39:42;;;;;;;27.83;16.27;;;1.00;99.90;;;;;;5071162;28;20044;-66
2021/12/23 07:42:14;;;;;;;24.17;14.07;;;1.10;99.90;;;;;;5069793;28;20094;-66
2021/12/23 07:44:39;;;;;;;29.98;17.35;;;1.00;99.90;;;;;;5061522;28;20064;-66
2021/12/23 07:47:05;;;;;;;29.17;16.15;;;1.10;99.90;;;;;;5062437;28;20033;-66
2021/12/23 07:49:31;;;;;;;28.83;14.98;;;1.20;99.90;;;;;;5059893;28;20060;-66
2021/12/23 07:51:58;;;;;;;26.90;15.85;;;1.10;99.90;;;;;;5058796;28;20053;-66
2021/12/23 07:54:23;;;;;;;28.80;16.67;;;1.10;99.90;;;;;;5063350;28;20123;-66
2021/12/23 07:56:49;;;;;;;23.77;13.63;;;1.00;99.90;;;;;;5069746;28;20083;-66
2021/12/23 07:59:15;;;;;;;26.88;16.52;;;2.40;99.90;;;;;;5031937;28;20048;-66
2021/12/23 08:01:41;;;;;;;29.00;17.08;;;0.90;99.90;;;;;;5065339;28;20044;-66
2021/12/23 08:04:10;;;;;;;27.70;16.20;;;1.00;99.90;;;;;;5070411;28;20542;-66
2021/12/23 08:06:36;;;;;;;28.55;15.98;;;0.90;99.90;;;;;;5064357;28;20601;-66
2021/12/23 08:09:02;;;;;;;27.52;17.05;;;0.90;99.90;;;;;;5065850;28;20040;-66
2021/12/23 08:11:27;;;;;;;27.98;15.40;;;0.90;99.90;;;;;;5063469;28;20078;-66
2021/12/23 08:13:53;;;;;;;24.20;14.63;;;0.90;99.90;;;;;;5061778;28;20068;-67
2021/12/23 08:16:18;;;;;;;22.35;13.32;;;1.00;99.90;;;;;;5056103;28;20472;-69
2021/12/23 08:18:44;;;;;;;26.90;15.55;;;1.00;99.90;;;;;;5048577;28;20045;-68
2021/12/23 08:21:10;;;;;;;31.00;17.33;;;1.00;99.90;;;;;;5056398;28;20552;-68
2021/12/23 08:26:16;;;;;;;23.85;14.40;;;0.90;99.90;;;;;;5002818;28;20045;-87
2021/12/23 08:28:42;;;;;;;30.63;15.13;;;-0.40;99.90;;;;;;5010731;28;20582;-84
2021/12/23 08:31:15;;;;;;;25.58;15.40;;;2.10;99.90;;;;;;5001998;28;20161;-93
2021/12/23 08:33:41;;;;;;;28.02;16.52;;;1.30;99.90;;;;;;5006698;28;20042;-90
2021/12/23 08:36:08;;;;;;;27.60;14.45;;;0.70;99.90;;;;;;4991784;28;20129;-89
2021/12/23 08:38:35;;;;;;;29.45;15.18;;;;;;;;;;5000493;28;20156;-88
2021/12/23 08:41:03;;;;;;;24.98;14.80;;;0.90;99.90;;;;;;5005582;28;20340;-87
2021/12/23 08:43:29;;;;;;;25.98;15.20;;;0.30;99.90;;;;;;4994951;28;20049;-90
2021/12/23 08:45:55;;;;;;;27.70;15.40;;;1.80;99.90;;;;;;4992591;28;20042;-90
2021/12/23 08:48:21;;;;;;;26.23;15.10;;;1.80;99.90;;;;;;5004180;28;20045;-88
2021/12/23 08:50:46;;;;;;;31.35;18.63;;;2.10;99.90;;;;;;5007405;28;20053;-89
2021/12/23 08:53:15;;;;;;;27.75;17.17;;;0.60;99.90;;;;;;5029522;28;20235;-88
2021/12/23 08:55:47;;;;;;;30.48;18.15;;;0.80;99.90;;;;;;5015625;28;20194;-86
2021/12/23 09:02:12;;;;;;;31.52;17.88;;;1.10;99.90;;;;;;4975416;22;20112;-90
2021/12/23 09:04:38;;;;;;;28.83;16.83;;;1.10;99.90;;;;;;4978694;28;20488;-91
2021/12/23 09:07:07;;;;;;;32.10;17.80;;;1.40;99.90;;;;;;4981649;28;20080;-88
2021/12/23 09:09:44;;;;;;;30.65;15.88;;;1.10;99.90;;;;;;4975300;28;20046;-90
2021/12/23 09:15:17;;;;;;;33.65;19.35;;;2.60;99.90;;;;;;4991325;28;20070;-89
2021/12/23 09:17:48;;;;;;;31.70;18.25;;;0.80;99.90;;;;;;4974869;28;20046;-91
2021/12/23 09:20:46;;;;;;;30.55;17.42;;;0.60;99.90;;;;;;4998045;28;20058;-91
2021/12/23 10:38:31;;;;;;;55.85;26.40;;;0.90;99.90;;;;;;4991188;28;20467;-65
2021/12/23 10:41:06;;;;;;;51.70;26.92;;;0.80;99.90;;;;;;5006554;28;20172;-65
2021/12/23 10:43:40;;;;;;;50.05;26.85;;;0.80;99.90;;;;;;5009204;28;20127;-65
2021/12/23 10:46:14;;;;;;;52.30;25.23;;;0.80;99.90;;;;;;5008168;28;20099;-65
2021/12/23 10:48:53;;;;;;;51.40;26.23;;;0.80;99.90;;;;;;5002416;28;20054;-66
2021/12/23 10:51:20;;;;;;;52.85;28.23;;;0.90;99.90;;;;;;4986362;28;20053;-65
2021/12/23 10:54:19;;;;;;;56.15;28.10;;;0.90;99.90;;;;;;4985405;28;20538;-67
2021/12/23 10:59:30;;;;;;;52.85;27.15;;;0.90;99.90;;;;;;4993318;28;20070;-67
2021/12/23 11:02:18;;;;;;;50.42;25.73;;;0.90;99.90;;;;;;4989828;28;20568;-64
2021/12/23 11:05:10;;;;;;;57.80;28.10;;;0.90;99.90;;;;;;4973685;28;20038;-65
2021/12/23 11:07:44;;;;;;;55.42;25.52;;;0.90;99.90;;;;;;4989652;28;20115;-68
2021/12/23 11:10:18;;;;;;;56.83;28.35;;;1.10;99.90;;;;;;5005073;28;20056;-65
2021/12/23 11:37:40;;;;;;;54.67;26.98;;;1.10;99.90;;;;;;4987630;28;20116;-66
2021/12/23 11:40:12;;;;;;;53.85;26.45;;;1.10;99.90;;;;;;5004869;28;20077;-66
2021/12/23 11:43:02;;;;;;;55.17;26.70;;;1.10;99.90;;;;;;4993149;28;20034;-66
2021/12/23 11:45:26;;;;;;;43.75;22.40;;;1.00;99.90;;;;;;4987593;28;20054;-66
2021/12/23 11:47:52;;;;;;;53.95;26.63;;;1.00;99.90;;;;;;4987427;28;20474;-66
2021/12/23 11:50:29;;;;;;;55.78;28.27;;;1.10;99.90;;;;;;4986316;28;20038;-66
2021/12/23 11:52:55;;;;;;;52.63;26.70;;;1.10;99.90;;;;;;4995410;28;20069;-65
2021/12/23 11:55:20;;;;;;;60.78;29.25;;;1.10;99.90;;;;;;4985663;28;20104;-65
2021/12/23 11:57:48;;;;;;;59.05;28.65;;;1.00;99.90;;;;;;4987457;28;20034;-66
2021/12/23 12:00:18;;;;;;;58.00;28.98;;;1.00;99.90;;;;;;4987437;28;20054;-65
2021/12/23 12:02:57;;;;;;;55.47;26.98;;;1.10;99.90;;;;;;4980063;28;20398;-65
2021/12/23 12:05:22;;;;;;;61.17;30.38;;;1.10;99.90;;;;;;4988231;28;20391;-66
2021/12/23 12:08:10;;;;;;;53.33;26.33;;;1.10;99.90;;;;;;4988697;28;20078;-65
2021/12/23 12:10:38;;;;;;;62.53;29.20;;;1.10;99.90;;;;;;4990200;28;20085;-65
2021/12/23 12:13:07;;;;;;;56.67;27.40;;;1.10;99.90;;;;;;5007032;28;20041;-66
2021/12/23 12:15:39;;;;;;;54.78;27.10;;;1.10;99.90;;;;;;4995493;28;20449;-66
2021/12/23 12:18:11;;;;;;;53.92;25.75;;;1.20;99.90;;;;;;4988692;28;20038;-66
2021/12/23 12:20:44;;;;;;;58.63;29.15;;;1.10;99.90;;;;;;4991044;28;20058;-66
2021/12/23 12:23:14;;;;;;;57.50;30.40;;;1.10;99.90;;;;;;4995942;28;20043;-65
2021/12/23 12:25:44;;;;;;;55.58;28.48;;;1.20;99.90;;;;;;4992398;28;20042;-66
2021/12/23 12:28:17;;;;;;;48.05;23.67;;;1.20;99.90;;;;;;4996214;28;20050;-66
2021/12/23 12:30:53;;;;;;;53.90;28.33;;;1.20;99.90;;;;;;4973108;28;20050;-65
2021/12/23 12:33:19;;;;;;;54.85;28.63;;;1.20;99.90;;;;;;4992698;28;20126;-66
2021/12/23 12:36:05;;;;;;;58.67;28.05;;;1.20;99.90;;;;;;4992257;28;20133;-66
2021/12/23 12:38:34;;;;;;;52.60;26.00;;;1.20;99.90;;;;;;4982118;28;20050;-67
2021/12/23 12:41:16;;;;;;;58.00;29.25;;;1.30;99.90;;;;;;4988227;28;20161;-67
2021/12/23 12:43:47;;;;;;;54.67;28.30;;;1.20;99.90;;;;;;4991017;28;20060;-66
2021/12/23 12:46:33;;;;;;;53.85;28.20;;;1.30;99.90;;;;;;4990877;28;20053;-67
2021/12/23 12:49:02;;;;;;;52.92;27.50;;;1.30;99.90;;;;;;4994523;28;20050;-66
2021/12/23 12:51:36;;;;;;;55.80;28.13;;;1.30;99.90;;;;;;4989104;28;20054;-66
2021/12/23 12:54:05;;;;;;;57.15;29.52;;;1.40;99.90;;;;;;4990597;28;20046;-66
2021/12/23 12:56:34;;;;;;;53.83;27.77;;;1.40;99.90;;;;;;4991331;28;20052;-66
2021/12/23 12:59:00;;;;;;;56.35;28.45;;;1.50;99.90;;;;;;4970818;28;20051;-66
2021/12/23 13:01:34;;;;;;;53.15;27.88;;;1.50;99.90;;;;;;4987607;28;20053;-66
2021/12/23 13:04:01;;;;;;;48.13;24.23;;;1.50;99.90;;;;;;4976019;28;20042;-65
2021/12/23 13:06:36;;;;;;;59.15;28.77;;;1.50;99.90;;;;;;4985007;28;20073;-67
2021/12/23 13:09:10;;;;;;;56.22;28.73;;;1.50;99.90;;;;;;4989780;28;20062;-66
2021/12/23 13:11:40;;;;;;;60.40;29.88;;;1.50;99.90;;;;;;4989699;28;20445;-66
2021/12/23 13:14:12;;;;;;;50.95;26.92;;;1.50;99.90;;;;;;4987348;28;20049;-67
2021/12/23 13:16:55;;;;;;;54.70;28.10;;;1.50;99.90;;;;;;4972355;28;20043;-66
2021/12/23 13:19:29;;;;;;;56.67;30.10;;;1.50;99.90;;;;;;4971769;28;20043;-66
2021/12/23 13:21:57;;;;;;;54.08;25.88;;;1.50;99.90;;;;;;4970363;28;20046;-66
2021/12/23 13:24:25;;;;;;;59.05;29.17;;;1.50;99.90;;;;;;4981658;28;20058;-67
2021/12/23 13:26:53;;;;;;;58.78;29.60;;;1.50;99.90;;;;;;4991017;28;20440;-66
2021/12/23 13:29:26;;;;;;;58.33;30.02;;;1.40;99.90;;;;;;4988491;28;20070;-65
2021/12/23 13:31:52;;;;;;;51.95;25.05;;;1.40;99.90;;;;;;4996722;28;20401;-65
2021/12/23 13:34:23;;;;;;;59.33;29.02;;;1.40;99.90;;;;;;4989230;28;20057;-66
2021/12/23 13:36:52;;;;;;;56.13;28.40;;;1.50;99.90;;;;;;4989276;28;20071;-67
2021/12/23 13:39:28;;;;;;;56.83;28.13;;;1.40;99.90;;;;;;4991504;28;20130;-65
2021/12/23 13:41:57;;;;;;;57.90;29.23;;;1.40;99.90;;;;;;4989289;28;20049;-67
2021/12/23 13:44:31;;;;;;;61.08;28.83;;;1.40;99.90;;;;;;4990196;28;20042;-67
2021/12/23 13:47:00;;;;;;;60.13;29.50;;;1.50;99.90;;;;;;4990746;28;20078;-64
2021/12/23 13:49:50;;;;;;;63.92;30.80;;;1.60;99.90;;;;;;4989172;28;20049;-65
2021/12/23 13:52:22;;;;;;;59.20;28.40;;;1.40;99.90;;;;;;4987758;28;20450;-65
2021/12/23 13:54:52;;;;;;;61.13;30.13;;;1.40;99.90;;;;;;4974918;28;20039;-65
2021/12/23 13:57:20;;;;;;;66.78;30.88;;;1.50;99.90;;;;;;4983849;28;20453;-66
2021/12/23 13:59:47;;;;;;;60.45;28.13;;;2.30;99.90;;;;;;4970522;28;20082;-65
2021/12/23 14:02:15;;;;;;;61.92;30.20;;;1.50;99.90;;;;;;4969968;28;20218;-66
2021/12/23 14:04:52;;;;;;;55.70;27.48;;;1.50;99.90;;;;;;4989289;28;20066;-66
2021/12/23 14:07:27;;;;;;;59.20;29.58;;;1.60;99.90;;;;;;4988622;28;20065;-66
2021/12/23 14:09:56;;;;;;;62.57;30.33;;;1.50;99.90;;;;;;4988676;28;20455;-66
2021/12/23 14:12:50;;;;;;;59.50;30.23;;;1.70;99.90;;;;;;4991214;28;20061;-66
2021/12/23 14:15:33;;;;;;;67.25;29.33;;;1.50;99.90;;;;;;4989910;28;20175;-67
2021/12/23 14:23:23;;;;;;;60.40;28.85;;;1.60;99.90;;;;;;4987829;28;20409;-66
2021/12/23 14:25:52;;;;;;;61.42;29.30;;;1.70;99.90;;;;;;4990566;28;20054;-66
2021/12/23 14:28:35;;;;;;;61.10;26.73;;;1.60;99.90;;;;;;4987199;28;20046;-66
2021/12/23 14:31:06;;;;;;;57.75;28.13;;;1.70;99.90;;;;;;4990150;28;20451;-66
2021/12/23 14:33:40;;;;;;;58.08;27.27;;;2.40;99.90;;;;;;4988569;28;20432;-66
2021/12/23 14:36:18;;;;;;;61.25;28.13;;;1.50;99.90;;;;;;4987480;28;20077;-66
2021/12/23 14:38:53;;;;;;;56.75;27.08;;;1.40;99.90;;;;;;4989173;28;20109;-66
2021/12/23 14:41:19;;;;;;;58.72;28.73;;;1.50;99.90;;;;;;4985832;28;20049;-66
2021/12/23 14:43:53;;;;;;;65.07;30.08;;;1.50;99.90;;;;;;4988215;28;20092;-67
2021/12/23 14:47:13;;;;;;;60.13;28.42;;;1.50;99.90;;;;;;4985714;28;20042;-65
2021/12/23 14:50:14;;;;;;;59.33;28.20;;;1.50;99.90;;;;;;4985050;28;20070;-66